sensor_id;sensor_type;location;lat;lon;timestamp;P1;durP1;ratioP1;P2;durP2;ratioP2
5841;SDS011;2947;52.276;9.946;2022-08-16T00:00:48;12.63;;;10.63;;
5841;SDS011;2947;52.276;9.946;2022-08-16T00:03:15;13.90;;;10.88;;
5841;SDS011;2947;52.276;9.946;2022-08-16T00:05:42;14.32;;;11.25;;
5841;SDS011;2947;52.276;9.946;2022-08-16T00:08:08;14.38;;;10.88;;
5841;SDS011;2947;52.276;9.946;2022-08-16T00:10:35;16.13;;;11.27;;
5841;SDS011;2947;52.276;9.946;2022-08-16T00:13:02;13.57;;;9.60;;
5841;SDS011;2947;52.276;9.946;2022-08-16T00:15:49;17.73;;;11.45;;
5841;SDS011;2947;52.276;9.946;2022-08-16T00:18:17;13.63;;;11.07;;
5841;SDS011;2947;52.276;9.946;2022-08-16T00:20:44;18.58;;;9.50;;
5841;SDS011;2947;52.276;9.946;2022-08-16T00:23:12;15.20;;;10.55;;
5841;SDS011;2947;52.276;9.946;2022-08-16T00:25:38;18.55;;;10.75;;
5841;SDS011;2947;52.276;9.946;2022-08-16T00:28:04;13.80;;;10.55;;
5841;SDS011;2947;52.276;9.946;2022-08-16T00:30:31;13.32;;;11.05;;
5841;SDS011;2947;52.276;9.946;2022-08-16T00:32:58;22.30;;;10.38;;
5841;SDS011;2947;52.276;9.946;2022-08-16T00:35:27;13.60;;;10.65;;
5841;SDS011;2947;52.276;9.946;2022-08-16T00:37:58;16.30;;;10.80;;
5841;SDS011;2947;52.276;9.946;2022-08-16T00:40:29;19.55;;;10.38;;
5841;SDS011;2947;52.276;9.946;2022-08-16T00:43:12;14.80;;;9.70;;
5841;SDS011;2947;52.276;9.946;2022-08-16T00:46:00;13.38;;;10.82;;
5841;SDS011;2947;52.276;9.946;2022-08-16T00:48:46;23.17;;;12.70;;
5841;SDS011;2947;52.276;9.946;2022-08-16T00:51:15;15.25;;;10.63;;
5841;SDS011;2947;52.276;9.946;2022-08-16T00:53:43;18.35;;;11.05;;
5841;SDS011;2947;52.276;9.946;2022-08-16T00:56:11;16.55;;;11.82;;
5841;SDS011;2947;52.276;9.946;2022-08-16T00:58:43;16.33;;;11.02;;
5841;SDS011;2947;52.276;9.946;2022-08-16T01:01:12;17.90;;;10.45;;
5841;SDS011;2947;52.276;9.946;2022-08-16T01:03:40;15.05;;;10.27;;
5841;SDS011;2947;52.276;9.946;2022-08-16T01:06:12;13.05;;;10.70;;
5841;SDS011;2947;52.276;9.946;2022-08-16T01:08:39;19.67;;;11.50;;
5841;SDS011;2947;52.276;9.946;2022-08-16T01:11:06;19.90;;;11.48;;
5841;SDS011;2947;52.276;9.946;2022-08-16T01:13:34;13.85;;;10.70;;
5841;SDS011;2947;52.276;9.946;2022-08-16T01:16:03;16.38;;;11.98;;
5841;SDS011;2947;52.276;9.946;2022-08-16T01:18:43;15.27;;;11.82;;
5841;SDS011;2947;52.276;9.946;2022-08-16T01:21:16;18.20;;;11.40;;
5841;SDS011;2947;52.276;9.946;2022-08-16T01:26:35;17.50;;;11.75;;
5841;SDS011;2947;52.276;9.946;2022-08-16T01:29:05;16.88;;;12.63;;
5841;SDS011;2947;52.276;9.946;2022-08-16T01:31:34;18.30;;;12.70;;
5841;SDS011;2947;52.276;9.946;2022-08-16T01:34:00;15.20;;;11.98;;
5841;SDS011;2947;52.276;9.946;2022-08-16T01:36:26;20.15;;;12.98;;
5841;SDS011;2947;52.276;9.946;2022-08-16T01:38:53;15.00;;;11.93;;
5841;SDS011;2947;52.276;9.946;2022-08-16T01:41:21;17.42;;;12.40;;
5841;SDS011;2947;52.276;9.946;2022-08-16T01:43:51;22.02;;;13.63;;
5841;SDS011;2947;52.276;9.946;2022-08-16T01:46:28;17.45;;;13.40;;
5841;SDS011;2947;52.276;9.946;2022-08-16T01:49:13;20.13;;;12.95;;
5841;SDS011;2947;52.276;9.946;2022-08-16T01:51:49;14.68;;;11.88;;
5841;SDS011;2947;52.276;9.946;2022-08-16T01:54:22;15.40;;;12.48;;
5841;SDS011;2947;52.276;9.946;2022-08-16T01:56:48;24.25;;;13.52;;
5841;SDS011;2947;52.276;9.946;2022-08-16T01:59:14;16.08;;;12.95;;
5841;SDS011;2947;52.276;9.946;2022-08-16T02:01:40;18.27;;;12.75;;
5841;SDS011;2947;52.276;9.946;2022-08-16T02:04:08;15.52;;;13.10;;
5841;SDS011;2947;52.276;9.946;2022-08-16T02:06:34;15.45;;;12.48;;
5841;SDS011;2947;52.276;9.946;2022-08-16T02:09:00;17.60;;;12.93;;
5841;SDS011;2947;52.276;9.946;2022-08-16T02:11:27;20.13;;;14.10;;
5841;SDS011;2947;52.276;9.946;2022-08-16T02:13:53;21.05;;;13.27;;
5841;SDS011;2947;52.276;9.946;2022-08-16T02:16:19;21.45;;;12.98;;
5841;SDS011;2947;52.276;9.946;2022-08-16T02:18:45;14.95;;;11.52;;
5841;SDS011;2947;52.276;9.946;2022-08-16T02:21:12;19.13;;;12.15;;
5841;SDS011;2947;52.276;9.946;2022-08-16T02:23:39;16.33;;;11.55;;
5841;SDS011;2947;52.276;9.946;2022-08-16T02:26:06;18.88;;;12.48;;
5841;SDS011;2947;52.276;9.946;2022-08-16T02:28:32;21.90;;;12.73;;
5841;SDS011;2947;52.276;9.946;2022-08-16T02:30:59;19.33;;;13.18;;
5841;SDS011;2947;52.276;9.946;2022-08-16T02:33:30;16.27;;;12.07;;
5841;SDS011;2947;52.276;9.946;2022-08-16T02:35:56;15.98;;;12.75;;
5841;SDS011;2947;52.276;9.946;2022-08-16T02:38:22;21.23;;;12.93;;
5841;SDS011;2947;52.276;9.946;2022-08-16T02:40:48;15.77;;;12.70;;
5841;SDS011;2947;52.276;9.946;2022-08-16T02:43:14;15.15;;;12.73;;
5841;SDS011;2947;52.276;9.946;2022-08-16T02:45:40;22.75;;;13.50;;
5841;SDS011;2947;52.276;9.946;2022-08-16T02:48:06;18.20;;;13.30;;
5841;SDS011;2947;52.276;9.946;2022-08-16T02:50:32;17.92;;;14.43;;
5841;SDS011;2947;52.276;9.946;2022-08-16T02:52:58;20.38;;;14.13;;
5841;SDS011;2947;52.276;9.946;2022-08-16T02:55:24;20.13;;;14.13;;
5841;SDS011;2947;52.276;9.946;2022-08-16T02:57:50;23.42;;;15.68;;
5841;SDS011;2947;52.276;9.946;2022-08-16T03:00:16;22.50;;;14.75;;
5841;SDS011;2947;52.276;9.946;2022-08-16T03:02:43;18.88;;;14.18;;
5841;SDS011;2947;52.276;9.946;2022-08-16T03:05:10;17.98;;;14.15;;
5841;SDS011;2947;52.276;9.946;2022-08-16T03:07:39;22.45;;;14.90;;
5841;SDS011;2947;52.276;9.946;2022-08-16T03:10:06;16.58;;;12.70;;
5841;SDS011;2947;52.276;9.946;2022-08-16T03:12:36;16.98;;;13.63;;
5841;SDS011;2947;52.276;9.946;2022-08-16T03:15:03;17.30;;;13.15;;
5841;SDS011;2947;52.276;9.946;2022-08-16T03:17:31;21.58;;;15.35;;
5841;SDS011;2947;52.276;9.946;2022-08-16T03:19:57;22.83;;;14.15;;
5841;SDS011;2947;52.276;9.946;2022-08-16T03:22:23;20.35;;;14.32;;
5841;SDS011;2947;52.276;9.946;2022-08-16T03:24:48;20.25;;;14.43;;
5841;SDS011;2947;52.276;9.946;2022-08-16T03:27:14;25.85;;;16.02;;
5841;SDS011;2947;52.276;9.946;2022-08-16T03:29:40;21.83;;;16.40;;
5841;SDS011;2947;52.276;9.946;2022-08-16T03:32:06;18.08;;;15.25;;
5841;SDS011;2947;52.276;9.946;2022-08-16T03:34:31;21.83;;;15.52;;
5841;SDS011;2947;52.276;9.946;2022-08-16T03:36:57;20.13;;;15.48;;
5841;SDS011;2947;52.276;9.946;2022-08-16T03:39:24;22.15;;;15.30;;
5841;SDS011;2947;52.276;9.946;2022-08-16T03:41:51;17.95;;;14.10;;
5841;SDS011;2947;52.276;9.946;2022-08-16T03:44:17;21.20;;;13.77;;
5841;SDS011;2947;52.276;9.946;2022-08-16T03:46:44;20.85;;;14.80;;
5841;SDS011;2947;52.276;9.946;2022-08-16T03:49:09;20.05;;;12.77;;
5841;SDS011;2947;52.276;9.946;2022-08-16T03:51:36;18.23;;;12.77;;
5841;SDS011;2947;52.276;9.946;2022-08-16T03:54:04;15.48;;;12.13;;
5841;SDS011;2947;52.276;9.946;2022-08-16T03:56:30;16.45;;;11.57;;
5841;SDS011;2947;52.276;9.946;2022-08-16T03:58:56;15.05;;;11.75;;
5841;SDS011;2947;52.276;9.946;2022-08-16T04:01:23;14.88;;;11.70;;
5841;SDS011;2947;52.276;9.946;2022-08-16T04:03:50;16.52;;;12.82;;
5841;SDS011;2947;52.276;9.946;2022-08-16T04:06:17;21.30;;;12.65;;
5841;SDS011;2947;52.276;9.946;2022-08-16T04:08:42;19.48;;;11.55;;
5841;SDS011;2947;52.276;9.946;2022-08-16T04:11:08;17.48;;;10.68;;
5841;SDS011;2947;52.276;9.946;2022-08-16T04:13:34;15.80;;;11.77;;
5841;SDS011;2947;52.276;9.946;2022-08-16T04:16:00;23.00;;;10.82;;
5841;SDS011;2947;52.276;9.946;2022-08-16T04:18:27;18.92;;;11.05;;
5841;SDS011;2947;52.276;9.946;2022-08-16T04:20:54;16.13;;;10.70;;
5841;SDS011;2947;52.276;9.946;2022-08-16T04:23:20;16.83;;;10.85;;
5841;SDS011;2947;52.276;9.946;2022-08-16T04:25:47;19.45;;;12.00;;
5841;SDS011;2947;52.276;9.946;2022-08-16T04:28:14;18.45;;;11.57;;
5841;SDS011;2947;52.276;9.946;2022-08-16T04:30:41;18.08;;;12.00;;
5841;SDS011;2947;52.276;9.946;2022-08-16T04:33:07;17.45;;;11.02;;
5841;SDS011;2947;52.276;9.946;2022-08-16T04:35:33;18.77;;;12.65;;
5841;SDS011;2947;52.276;9.946;2022-08-16T04:37:59;18.75;;;10.80;;
5841;SDS011;2947;52.276;9.946;2022-08-16T04:40:26;12.25;;;9.18;;
5841;SDS011;2947;52.276;9.946;2022-08-16T04:42:52;12.68;;;9.95;;
5841;SDS011;2947;52.276;9.946;2022-08-16T04:45:18;14.85;;;9.90;;
5841;SDS011;2947;52.276;9.946;2022-08-16T04:47:45;15.93;;;10.98;;
5841;SDS011;2947;52.276;9.946;2022-08-16T04:50:15;17.73;;;11.05;;
5841;SDS011;2947;52.276;9.946;2022-08-16T04:52:45;17.33;;;10.18;;
5841;SDS011;2947;52.276;9.946;2022-08-16T04:55:17;19.55;;;10.65;;
5841;SDS011;2947;52.276;9.946;2022-08-16T04:57:47;17.85;;;9.23;;
5841;SDS011;2947;52.276;9.946;2022-08-16T05:00:17;18.10;;;10.80;;
5841;SDS011;2947;52.276;9.946;2022-08-16T05:02:49;20.90;;;10.63;;
5841;SDS011;2947;52.276;9.946;2022-08-16T05:05:18;20.70;;;11.10;;
5841;SDS011;2947;52.276;9.946;2022-08-16T05:07:45;14.40;;;9.82;;
5841;SDS011;2947;52.276;9.946;2022-08-16T05:10:12;27.42;;;9.07;;
5841;SDS011;2947;52.276;9.946;2022-08-16T05:12:39;12.88;;;9.00;;
5841;SDS011;2947;52.276;9.946;2022-08-16T05:15:06;14.63;;;9.35;;
5841;SDS011;2947;52.276;9.946;2022-08-16T05:17:34;21.35;;;9.88;;
5841;SDS011;2947;52.276;9.946;2022-08-16T05:20:01;13.80;;;8.57;;
5841;SDS011;2947;52.276;9.946;2022-08-16T05:22:29;18.55;;;9.77;;
5841;SDS011;2947;52.276;9.946;2022-08-16T05:24:55;12.60;;;8.93;;
5841;SDS011;2947;52.276;9.946;2022-08-16T05:27:21;12.65;;;8.20;;
5841;SDS011;2947;52.276;9.946;2022-08-16T05:29:46;13.13;;;8.00;;
5841;SDS011;2947;52.276;9.946;2022-08-16T05:32:12;11.00;;;7.15;;
5841;SDS011;2947;52.276;9.946;2022-08-16T05:34:38;10.45;;;7.30;;
5841;SDS011;2947;52.276;9.946;2022-08-16T05:37:03;12.40;;;7.68;;
5841;SDS011;2947;52.276;9.946;2022-08-16T05:39:29;11.57;;;7.68;;
5841;SDS011;2947;52.276;9.946;2022-08-16T05:41:55;7.85;;;6.97;;
5841;SDS011;2947;52.276;9.946;2022-08-16T05:44:21;11.55;;;7.82;;
5841;SDS011;2947;52.276;9.946;2022-08-16T05:46:48;13.10;;;8.70;;
5841;SDS011;2947;52.276;9.946;2022-08-16T05:49:15;11.50;;;7.28;;
5841;SDS011;2947;52.276;9.946;2022-08-16T05:51:42;13.60;;;7.63;;
5841;SDS011;2947;52.276;9.946;2022-08-16T05:54:09;15.52;;;7.68;;
5841;SDS011;2947;52.276;9.946;2022-08-16T05:56:38;12.18;;;8.02;;
5841;SDS011;2947;52.276;9.946;2022-08-16T05:59:05;10.70;;;7.85;;
5841;SDS011;2947;52.276;9.946;2022-08-16T06:01:32;11.43;;;7.95;;
5841;SDS011;2947;52.276;9.946;2022-08-16T06:03:59;10.82;;;7.68;;
5841;SDS011;2947;52.276;9.946;2022-08-16T06:06:24;10.32;;;7.05;;
5841;SDS011;2947;52.276;9.946;2022-08-16T06:08:50;8.40;;;7.32;;
5841;SDS011;2947;52.276;9.946;2022-08-16T06:11:16;11.27;;;7.43;;
5841;SDS011;2947;52.276;9.946;2022-08-16T06:13:42;12.20;;;8.05;;
5841;SDS011;2947;52.276;9.946;2022-08-16T06:16:09;7.78;;;6.30;;
5841;SDS011;2947;52.276;9.946;2022-08-16T06:18:35;11.57;;;7.60;;
5841;SDS011;2947;52.276;9.946;2022-08-16T06:21:01;11.02;;;7.13;;
5841;SDS011;2947;52.276;9.946;2022-08-16T06:23:26;9.18;;;6.70;;
5841;SDS011;2947;52.276;9.946;2022-08-16T06:25:52;9.55;;;6.97;;
5841;SDS011;2947;52.276;9.946;2022-08-16T06:28:18;9.60;;;7.32;;
5841;SDS011;2947;52.276;9.946;2022-08-16T06:30:44;9.75;;;6.20;;
5841;SDS011;2947;52.276;9.946;2022-08-16T06:33:14;7.32;;;6.05;;
5841;SDS011;2947;52.276;9.946;2022-08-16T06:35:43;11.32;;;6.78;;
5841;SDS011;2947;52.276;9.946;2022-08-16T06:38:10;8.50;;;7.13;;
5841;SDS011;2947;52.276;9.946;2022-08-16T06:40:36;16.00;;;6.55;;
5841;SDS011;2947;52.276;9.946;2022-08-16T06:43:01;6.50;;;5.80;;
5841;SDS011;2947;52.276;9.946;2022-08-16T06:45:27;11.52;;;6.97;;
5841;SDS011;2947;52.276;9.946;2022-08-16T06:47:53;7.93;;;6.47;;
5841;SDS011;2947;52.276;9.946;2022-08-16T06:50:19;13.02;;;6.07;;
5841;SDS011;2947;52.276;9.946;2022-08-16T06:52:45;8.23;;;5.82;;
5841;SDS011;2947;52.276;9.946;2022-08-16T06:55:13;10.02;;;6.28;;
5841;SDS011;2947;52.276;9.946;2022-08-16T06:57:40;8.48;;;5.82;;
5841;SDS011;2947;52.276;9.946;2022-08-16T07:00:08;11.20;;;6.30;;
5841;SDS011;2947;52.276;9.946;2022-08-16T07:02:42;9.60;;;5.95;;
5841;SDS011;2947;52.276;9.946;2022-08-16T07:05:09;6.35;;;5.72;;
5841;SDS011;2947;52.276;9.946;2022-08-16T07:07:37;7.43;;;5.70;;
5841;SDS011;2947;52.276;9.946;2022-08-16T07:10:04;7.50;;;5.80;;
5841;SDS011;2947;52.276;9.946;2022-08-16T07:12:32;7.65;;;6.85;;
5841;SDS011;2947;52.276;9.946;2022-08-16T07:14:57;11.30;;;7.80;;
5841;SDS011;2947;52.276;9.946;2022-08-16T07:17:24;10.93;;;8.20;;
5841;SDS011;2947;52.276;9.946;2022-08-16T07:19:52;9.77;;;7.85;;
5841;SDS011;2947;52.276;9.946;2022-08-16T07:22:19;10.00;;;7.38;;
5841;SDS011;2947;52.276;9.946;2022-08-16T07:24:45;8.95;;;7.28;;
5841;SDS011;2947;52.276;9.946;2022-08-16T07:27:11;10.27;;;7.80;;
5841;SDS011;2947;52.276;9.946;2022-08-16T07:29:37;10.38;;;8.20;;
5841;SDS011;2947;52.276;9.946;2022-08-16T07:32:04;10.07;;;7.63;;
5841;SDS011;2947;52.276;9.946;2022-08-16T07:34:31;11.20;;;8.23;;
5841;SDS011;2947;52.276;9.946;2022-08-16T07:36:58;14.15;;;8.13;;
5841;SDS011;2947;52.276;9.946;2022-08-16T07:39:29;11.07;;;7.53;;
5841;SDS011;2947;52.276;9.946;2022-08-16T07:41:55;9.82;;;7.20;;
5841;SDS011;2947;52.276;9.946;2022-08-16T07:44:20;8.63;;;6.38;;
5841;SDS011;2947;52.276;9.946;2022-08-16T07:46:46;10.70;;;6.72;;
5841;SDS011;2947;52.276;9.946;2022-08-16T07:49:12;10.60;;;6.03;;
5841;SDS011;2947;52.276;9.946;2022-08-16T07:51:38;8.15;;;5.63;;
5841;SDS011;2947;52.276;9.946;2022-08-16T07:54:05;11.35;;;5.70;;
5841;SDS011;2947;52.276;9.946;2022-08-16T07:56:33;8.00;;;6.47;;
5841;SDS011;2947;52.276;9.946;2022-08-16T07:58:59;10.38;;;6.22;;
5841;SDS011;2947;52.276;9.946;2022-08-16T08:01:26;10.20;;;6.18;;
5841;SDS011;2947;52.276;9.946;2022-08-16T08:03:54;10.32;;;7.35;;
5841;SDS011;2947;52.276;9.946;2022-08-16T08:06:22;11.32;;;6.95;;
5841;SDS011;2947;52.276;9.946;2022-08-16T08:08:52;8.25;;;7.38;;
5841;SDS011;2947;52.276;9.946;2022-08-16T08:11:20;7.45;;;6.38;;
5841;SDS011;2947;52.276;9.946;2022-08-16T08:13:47;8.43;;;6.20;;
5841;SDS011;2947;52.276;9.946;2022-08-16T08:16:15;12.07;;;5.90;;
5841;SDS011;2947;52.276;9.946;2022-08-16T08:18:40;8.57;;;6.40;;
5841;SDS011;2947;52.276;9.946;2022-08-16T08:21:06;9.50;;;6.13;;
5841;SDS011;2947;52.276;9.946;2022-08-16T08:23:33;10.32;;;5.47;;
5841;SDS011;2947;52.276;9.946;2022-08-16T08:26:03;6.15;;;5.28;;
5841;SDS011;2947;52.276;9.946;2022-08-16T08:28:29;6.55;;;5.05;;
5841;SDS011;2947;52.276;9.946;2022-08-16T08:30:56;9.07;;;5.00;;
5841;SDS011;2947;52.276;9.946;2022-08-16T08:33:23;6.78;;;5.65;;
5841;SDS011;2947;52.276;9.946;2022-08-16T08:35:49;11.18;;;6.05;;
5841;SDS011;2947;52.276;9.946;2022-08-16T08:38:15;6.68;;;5.60;;
5841;SDS011;2947;52.276;9.946;2022-08-16T08:40:41;7.82;;;5.63;;
5841;SDS011;2947;52.276;9.946;2022-08-16T08:43:09;7.18;;;4.82;;
5841;SDS011;2947;52.276;9.946;2022-08-16T08:45:37;16.05;;;5.63;;
5841;SDS011;2947;52.276;9.946;2022-08-16T08:48:04;7.57;;;4.75;;
5841;SDS011;2947;52.276;9.946;2022-08-16T08:50:30;9.10;;;4.63;;
5841;SDS011;2947;52.276;9.946;2022-08-16T08:52:56;8.65;;;5.38;;
5841;SDS011;2947;52.276;9.946;2022-08-16T08:55:22;8.07;;;5.45;;
5841;SDS011;2947;52.276;9.946;2022-08-16T08:57:48;13.40;;;6.45;;
5841;SDS011;2947;52.276;9.946;2022-08-16T09:00:17;10.23;;;5.82;;
5841;SDS011;2947;52.276;9.946;2022-08-16T09:02:45;8.10;;;5.28;;
5841;SDS011;2947;52.276;9.946;2022-08-16T09:05:14;6.85;;;5.65;;
5841;SDS011;2947;52.276;9.946;2022-08-16T09:07:43;9.73;;;5.25;;
5841;SDS011;2947;52.276;9.946;2022-08-16T09:10:09;9.63;;;5.43;;
5841;SDS011;2947;52.276;9.946;2022-08-16T09:12:37;7.07;;;5.22;;
5841;SDS011;2947;52.276;9.946;2022-08-16T09:15:05;8.70;;;5.60;;
5841;SDS011;2947;52.276;9.946;2022-08-16T09:17:35;6.88;;;5.65;;
5841;SDS011;2947;52.276;9.946;2022-08-16T09:20:01;7.75;;;5.55;;
5841;SDS011;2947;52.276;9.946;2022-08-16T09:22:28;10.38;;;6.22;;
5841;SDS011;2947;52.276;9.946;2022-08-16T09:24:54;9.70;;;4.75;;
5841;SDS011;2947;52.276;9.946;2022-08-16T09:27:20;7.38;;;5.30;;
5841;SDS011;2947;52.276;9.946;2022-08-16T09:29:46;6.03;;;3.92;;
5841;SDS011;2947;52.276;9.946;2022-08-16T09:32:12;8.43;;;5.38;;
5841;SDS011;2947;52.276;9.946;2022-08-16T09:34:38;6.40;;;5.07;;
5841;SDS011;2947;52.276;9.946;2022-08-16T09:37:04;9.20;;;5.72;;
5841;SDS011;2947;52.276;9.946;2022-08-16T09:39:29;8.13;;;6.35;;
5841;SDS011;2947;52.276;9.946;2022-08-16T09:41:55;7.10;;;5.40;;
5841;SDS011;2947;52.276;9.946;2022-08-16T09:44:24;7.57;;;5.30;;
5841;SDS011;2947;52.276;9.946;2022-08-16T09:46:52;5.85;;;4.90;;
5841;SDS011;2947;52.276;9.946;2022-08-16T09:49:19;7.68;;;4.78;;
5841;SDS011;2947;52.276;9.946;2022-08-16T09:51:49;9.88;;;4.80;;
5841;SDS011;2947;52.276;9.946;2022-08-16T09:54:20;6.13;;;4.20;;
5841;SDS011;2947;52.276;9.946;2022-08-16T09:56:48;8.55;;;5.38;;
5841;SDS011;2947;52.276;9.946;2022-08-16T09:59:14;6.93;;;4.28;;
5841;SDS011;2947;52.276;9.946;2022-08-16T10:01:41;8.55;;;4.53;;
5841;SDS011;2947;52.276;9.946;2022-08-16T10:04:08;6.60;;;4.88;;
5841;SDS011;2947;52.276;9.946;2022-08-16T10:06:35;6.15;;;4.75;;
5841;SDS011;2947;52.276;9.946;2022-08-16T10:09:02;6.65;;;4.85;;
5841;SDS011;2947;52.276;9.946;2022-08-16T10:11:30;5.72;;;4.55;;
5841;SDS011;2947;52.276;9.946;2022-08-16T10:14:15;4.93;;;4.10;;
5841;SDS011;2947;52.276;9.946;2022-08-16T10:16:40;9.23;;;5.15;;
5841;SDS011;2947;52.276;9.946;2022-08-16T10:19:10;6.07;;;5.38;;
5841;SDS011;2947;52.276;9.946;2022-08-16T10:21:39;6.32;;;4.68;;
5841;SDS011;2947;52.276;9.946;2022-08-16T10:24:06;5.78;;;4.03;;
5841;SDS011;2947;52.276;9.946;2022-08-16T10:26:32;5.22;;;4.13;;
5841;SDS011;2947;52.276;9.946;2022-08-16T10:28:59;5.88;;;4.65;;
5841;SDS011;2947;52.276;9.946;2022-08-16T10:31:28;6.55;;;4.30;;
5841;SDS011;2947;52.276;9.946;2022-08-16T10:33:54;6.50;;;4.32;;
5841;SDS011;2947;52.276;9.946;2022-08-16T10:36:20;5.75;;;4.40;;
5841;SDS011;2947;52.276;9.946;2022-08-16T10:38:46;5.20;;;4.30;;
5841;SDS011;2947;52.276;9.946;2022-08-16T10:41:11;8.07;;;4.30;;
5841;SDS011;2947;52.276;9.946;2022-08-16T10:43:38;11.48;;;5.22;;
5841;SDS011;2947;52.276;9.946;2022-08-16T10:46:07;6.72;;;4.22;;
5841;SDS011;2947;52.276;9.946;2022-08-16T10:48:39;6.80;;;4.63;;
5841;SDS011;2947;52.276;9.946;2022-08-16T10:51:07;9.73;;;5.15;;
5841;SDS011;2947;52.276;9.946;2022-08-16T10:53:33;4.72;;;3.78;;
5841;SDS011;2947;52.276;9.946;2022-08-16T10:56:01;11.05;;;3.92;;
5841;SDS011;2947;52.276;9.946;2022-08-16T10:58:30;5.88;;;4.47;;
5841;SDS011;2947;52.276;9.946;2022-08-16T11:00:57;6.13;;;4.68;;
5841;SDS011;2947;52.276;9.946;2022-08-16T11:03:23;6.05;;;4.35;;
5841;SDS011;2947;52.276;9.946;2022-08-16T11:05:51;8.23;;;4.50;;
5841;SDS011;2947;52.276;9.946;2022-08-16T11:08:17;4.75;;;4.25;;
5841;SDS011;2947;52.276;9.946;2022-08-16T11:10:43;9.13;;;4.30;;
5841;SDS011;2947;52.276;9.946;2022-08-16T11:13:11;7.60;;;4.25;;
5841;SDS011;2947;52.276;9.946;2022-08-16T11:15:40;4.43;;;3.65;;
5841;SDS011;2947;52.276;9.946;2022-08-16T11:18:07;8.48;;;4.10;;
5841;SDS011;2947;52.276;9.946;2022-08-16T11:20:33;5.80;;;4.20;;
5841;SDS011;2947;52.276;9.946;2022-08-16T11:22:59;7.40;;;4.38;;
5841;SDS011;2947;52.276;9.946;2022-08-16T11:25:26;5.68;;;3.63;;
5841;SDS011;2947;52.276;9.946;2022-08-16T11:27:54;5.82;;;3.90;;
5841;SDS011;2947;52.276;9.946;2022-08-16T11:30:23;5.30;;;3.80;;
5841;SDS011;2947;52.276;9.946;2022-08-16T11:32:50;3.97;;;3.58;;
5841;SDS011;2947;52.276;9.946;2022-08-16T11:35:17;6.03;;;3.50;;
5841;SDS011;2947;52.276;9.946;2022-08-16T11:38:06;5.22;;;3.70;;
5841;SDS011;2947;52.276;9.946;2022-08-16T11:43:15;5.43;;;2.17;;
5841;SDS011;2947;52.276;9.946;2022-08-16T11:45:46;4.07;;;3.30;;
5841;SDS011;2947;52.276;9.946;2022-08-16T11:48:13;8.07;;;3.60;;
5841;SDS011;2947;52.276;9.946;2022-08-16T11:50:40;4.72;;;3.65;;
5841;SDS011;2947;52.276;9.946;2022-08-16T11:53:07;5.45;;;3.28;;
5841;SDS011;2947;52.276;9.946;2022-08-16T11:55:34;7.43;;;3.72;;
5841;SDS011;2947;52.276;9.946;2022-08-16T11:58:02;5.07;;;3.35;;
5841;SDS011;2947;52.276;9.946;2022-08-16T12:00:30;5.15;;;3.28;;
5841;SDS011;2947;52.276;9.946;2022-08-16T12:02:56;4.63;;;3.10;;
5841;SDS011;2947;52.276;9.946;2022-08-16T12:05:23;3.85;;;3.15;;
5841;SDS011;2947;52.276;9.946;2022-08-16T12:07:51;4.40;;;3.75;;
5841;SDS011;2947;52.276;9.946;2022-08-16T12:10:19;4.13;;;3.72;;
5841;SDS011;2947;52.276;9.946;2022-08-16T12:12:47;6.82;;;4.07;;
5841;SDS011;2947;52.276;9.946;2022-08-16T12:15:13;4.75;;;3.80;;
5841;SDS011;2947;52.276;9.946;2022-08-16T12:17:40;3.97;;;3.08;;
5841;SDS011;2947;52.276;9.946;2022-08-16T12:20:08;6.45;;;3.13;;
5841;SDS011;2947;52.276;9.946;2022-08-16T12:22:38;6.10;;;3.90;;
5841;SDS011;2947;52.276;9.946;2022-08-16T12:25:05;6.00;;;3.10;;
5841;SDS011;2947;52.276;9.946;2022-08-16T12:27:34;4.60;;;3.50;;
5841;SDS011;2947;52.276;9.946;2022-08-16T12:30:00;4.93;;;3.42;;
5841;SDS011;2947;52.276;9.946;2022-08-16T12:32:28;3.53;;;2.95;;
5841;SDS011;2947;52.276;9.946;2022-08-16T12:34:54;6.68;;;4.30;;
5841;SDS011;2947;52.276;9.946;2022-08-16T12:37:20;10.30;;;4.32;;
5841;SDS011;2947;52.276;9.946;2022-08-16T12:39:48;4.90;;;3.88;;
5841;SDS011;2947;52.276;9.946;2022-08-16T12:42:16;4.40;;;3.90;;
5841;SDS011;2947;52.276;9.946;2022-08-16T12:44:43;5.97;;;3.90;;
5841;SDS011;2947;52.276;9.946;2022-08-16T12:47:10;7.38;;;3.38;;
5841;SDS011;2947;52.276;9.946;2022-08-16T12:49:54;7.30;;;4.32;;
5841;SDS011;2947;52.276;9.946;2022-08-16T12:52:20;6.03;;;3.47;;
5841;SDS011;2947;52.276;9.946;2022-08-16T12:54:46;3.90;;;3.33;;
5841;SDS011;2947;52.276;9.946;2022-08-16T12:57:11;6.30;;;3.50;;
5841;SDS011;2947;52.276;9.946;2022-08-16T12:59:37;4.68;;;3.95;;
5841;SDS011;2947;52.276;9.946;2022-08-16T13:02:04;5.38;;;4.22;;
5841;SDS011;2947;52.276;9.946;2022-08-16T13:04:31;6.32;;;3.72;;
5841;SDS011;2947;52.276;9.946;2022-08-16T13:07:01;4.57;;;3.53;;
5841;SDS011;2947;52.276;9.946;2022-08-16T13:09:28;4.90;;;4.13;;
5841;SDS011;2947;52.276;9.946;2022-08-16T13:12:04;4.28;;;3.60;;
5841;SDS011;2947;52.276;9.946;2022-08-16T13:14:43;5.05;;;3.90;;
5841;SDS011;2947;52.276;9.946;2022-08-16T13:17:14;4.65;;;4.13;;
5841;SDS011;2947;52.276;9.946;2022-08-16T13:19:44;5.78;;;3.42;;
5841;SDS011;2947;52.276;9.946;2022-08-16T13:22:11;4.75;;;3.67;;
5841;SDS011;2947;52.276;9.946;2022-08-16T13:24:37;7.38;;;3.00;;
5841;SDS011;2947;52.276;9.946;2022-08-16T13:27:03;3.95;;;3.35;;
5841;SDS011;2947;52.276;9.946;2022-08-16T13:29:28;4.22;;;3.83;;
5841;SDS011;2947;52.276;9.946;2022-08-16T13:31:54;3.92;;;3.33;;
5841;SDS011;2947;52.276;9.946;2022-08-16T13:34:20;6.32;;;3.28;;
5841;SDS011;2947;52.276;9.946;2022-08-16T13:36:47;4.80;;;3.75;;
5841;SDS011;2947;52.276;9.946;2022-08-16T13:39:13;8.00;;;3.70;;
5841;SDS011;2947;52.276;9.946;2022-08-16T13:41:39;3.85;;;3.20;;
5841;SDS011;2947;52.276;9.946;2022-08-16T13:44:05;3.58;;;3.00;;
5841;SDS011;2947;52.276;9.946;2022-08-16T13:46:31;4.45;;;3.42;;
5841;SDS011;2947;52.276;9.946;2022-08-16T13:48:57;4.65;;;3.42;;
5841;SDS011;2947;52.276;9.946;2022-08-16T13:51:24;7.05;;;3.40;;
5841;SDS011;2947;52.276;9.946;2022-08-16T13:53:53;4.32;;;3.28;;
5841;SDS011;2947;52.276;9.946;2022-08-16T13:56:21;6.20;;;3.70;;
5841;SDS011;2947;52.276;9.946;2022-08-16T13:58:48;6.18;;;3.80;;
5841;SDS011;2947;52.276;9.946;2022-08-16T14:01:15;3.97;;;3.58;;
5841;SDS011;2947;52.276;9.946;2022-08-16T14:03:42;5.78;;;4.25;;
5841;SDS011;2947;52.276;9.946;2022-08-16T14:06:09;4.05;;;3.40;;
5841;SDS011;2947;52.276;9.946;2022-08-16T14:08:36;4.70;;;3.67;;
5841;SDS011;2947;52.276;9.946;2022-08-16T14:11:04;6.50;;;4.00;;
5841;SDS011;2947;52.276;9.946;2022-08-16T14:13:32;4.32;;;3.83;;
5841;SDS011;2947;52.276;9.946;2022-08-16T14:15:58;4.65;;;3.67;;
5841;SDS011;2947;52.276;9.946;2022-08-16T14:18:24;4.75;;;3.97;;
5841;SDS011;2947;52.276;9.946;2022-08-16T14:20:50;4.43;;;3.50;;
5841;SDS011;2947;52.276;9.946;2022-08-16T14:23:16;5.85;;;3.90;;
5841;SDS011;2947;52.276;9.946;2022-08-16T14:25:42;6.13;;;4.07;;
5841;SDS011;2947;52.276;9.946;2022-08-16T14:28:08;5.18;;;3.08;;
5841;SDS011;2947;52.276;9.946;2022-08-16T14:30:33;4.80;;;3.70;;
5841;SDS011;2947;52.276;9.946;2022-08-16T14:33:00;3.38;;;3.03;;
5841;SDS011;2947;52.276;9.946;2022-08-16T14:35:28;5.00;;;3.40;;
5841;SDS011;2947;52.276;9.946;2022-08-16T14:37:56;5.78;;;3.65;;
5841;SDS011;2947;52.276;9.946;2022-08-16T14:40:22;3.80;;;3.40;;
5841;SDS011;2947;52.276;9.946;2022-08-16T14:42:49;7.15;;;3.67;;
5841;SDS011;2947;52.276;9.946;2022-08-16T14:45:17;6.75;;;3.80;;
5841;SDS011;2947;52.276;9.946;2022-08-16T14:47:48;4.47;;;3.53;;
5841;SDS011;2947;52.276;9.946;2022-08-16T14:50:16;4.38;;;3.97;;
5841;SDS011;2947;52.276;9.946;2022-08-16T14:52:47;4.72;;;3.95;;
5841;SDS011;2947;52.276;9.946;2022-08-16T14:55:23;5.53;;;4.07;;
5841;SDS011;2947;52.276;9.946;2022-08-16T14:57:51;5.70;;;3.88;;
5841;SDS011;2947;52.276;9.946;2022-08-16T15:00:17;4.50;;;3.38;;
5841;SDS011;2947;52.276;9.946;2022-08-16T15:02:43;5.63;;;4.07;;
5841;SDS011;2947;52.276;9.946;2022-08-16T15:05:15;4.75;;;3.72;;
5841;SDS011;2947;52.276;9.946;2022-08-16T15:07:40;6.00;;;4.13;;
5841;SDS011;2947;52.276;9.946;2022-08-16T15:10:07;5.95;;;3.95;;
5841;SDS011;2947;52.276;9.946;2022-08-16T15:12:33;4.55;;;4.07;;